Time;durP1;ratioP1;P1;durP2;ratioP2;P2;SDS_P1;SDS_P2;PMS_P1;PMS_P2;Temp;Humidity;BMP_temperature;BMP_pressure;BME280_temperature;BME280_humidity;BME280_pressure;Samples;Min_cycle;Max_cycle;Signal;HPM_P1;HPM_P2
2022/12/29 00:01:01;;;;;;;14.32;3.25;;;11.60;99.90;;;11.67;87.51;99258.34;4921686;28;20320;-70
2022/12/29 00:03:28;;;;;;;23.42;5.97;;;11.60;99.90;;;11.57;87.91;99239.97;4952723;28;20229;-70
2022/12/29 00:05:57;;;;;;;17.40;4.30;;;11.60;99.90;;;11.60;88.08;99263.75;4943374;28;20710;-71
2022/12/29 00:08:39;;;;;;;18.67;5.22;;;11.50;99.90;;;11.45;89.17;99260.44;4972476;28;20254;-70
2022/12/29 00:11:17;;;;;;;20.38;4.70;;;11.50;99.90;;;11.61;89.07;99276.09;4954946;28;20241;-70
2022/12/29 00:16:32;;;;;;;13.43;3.65;;;11.50;99.90;;;11.54;89.62;99270.00;4966856;28;20257;-70
2022/12/29 00:19:00;;;;;;;17.13;4.15;;;11.50;99.90;;;11.62;89.57;99278.72;4923824;28;20241;-70
2022/12/29 00:35:29;;;;;;;10.00;3.10;;;11.40;99.90;;;11.65;88.11;99223.06;4941456;28;20260;-70
2022/12/29 00:46:19;;;;;;;8.25;2.33;;;11.40;99.90;;;11.42;89.37;99217.22;4964084;28;20242;-70
2022/12/29 00:51:32;;;;;;;13.90;4.20;;;11.40;99.90;;;11.45;89.78;99231.31;4922858;28;20242;-70
2022/12/29 00:53:59;;;;;;;11.05;3.08;;;9.80;99.90;;;11.45;89.91;99222.50;4950922;28;20245;-71
2022/12/29 00:56:27;;;;;;;13.02;3.60;;;11.40;99.90;;;11.59;89.57;99228.47;4921309;28;20268;-70
2022/12/29 00:58:54;;;;;;;13.15;3.95;;;11.50;99.90;;;11.61;89.36;99242.56;4937122;28;20230;-69
2022/12/29 01:01:21;;;;;;;12.77;3.75;;;11.60;99.90;;;11.66;89.53;99243.38;4923430;28;20308;-71
2022/12/29 01:03:49;;;;;;;9.98;2.92;;;11.60;99.90;;;11.52;90.40;99226.81;4920995;28;20320;-70
2022/12/29 01:06:16;;;;;;;10.32;3.03;;;11.50;99.90;;;11.49;91.13;99240.97;4942465;28;20726;-71
2022/12/29 01:08:44;;;;;;;11.65;3.42;;;11.50;99.90;;;11.39;92.23;99243.75;4936099;28;20235;-70
2022/12/29 01:11:12;;;;;;;15.23;3.50;;;11.40;99.90;;;11.35;93.07;99257.91;4937045;28;20241;-69
2022/12/29 01:13:42;;;;;;;10.95;3.42;;;11.30;99.90;;;11.35;93.77;99261.44;4967128;28;20269;-70
2022/12/29 01:16:09;;;;;;;11.95;3.65;;;11.30;99.90;;;11.31;94.65;99253.56;4924718;28;20232;-70
2022/12/29 01:18:37;;;;;;;12.95;4.15;;;11.30;99.90;;;11.21;95.43;99261.63;4967939;28;20772;-70
2022/12/29 01:21:06;;;;;;;13.98;3.67;;;11.20;99.90;;;11.21;96.16;99269.56;4939333;28;20229;-70
2022/12/29 01:23:33;;;;;;;5.38;1.63;;;11.20;99.90;;;11.22;96.26;99270.44;4921279;28;20241;-69
2022/12/29 01:26:15;;;;;;;15.30;3.88;;;11.20;99.90;;;11.17;97.32;99273.13;4956002;28;20241;-70
2022/12/29 01:28:43;;;;;;;5.53;1.23;;;11.10;99.90;;;11.14;97.74;99267.00;4949722;28;20585;-70
2022/12/29 01:31:13;;;;;;;13.85;3.38;;;11.10;99.90;;;11.02;99.21;99275.06;4933180;28;20253;-70
2022/12/29 01:33:43;;;;;;;14.23;3.70;;;11.00;99.90;;;10.90;100.00;99286.66;4928586;28;20243;-72
2022/12/29 01:36:15;;;;;;;7.03;1.98;;;10.90;99.90;;;10.90;100.00;99281.38;4956934;28;20238;-70
2022/12/29 01:38:43;;;;;;;12.68;3.33;;;10.90;99.90;;;10.88;100.00;99288.47;4926680;28;20239;-70
2022/12/29 01:41:14;;;;;;;15.13;4.20;;;10.90;99.90;;;10.80;100.00;99287.66;4924855;28;20239;-70
2022/12/29 01:43:56;;;;;;;11.57;3.10;;;10.80;99.90;;;10.81;100.00;99300.88;4955423;28;20251;-70
2022/12/29 01:46:31;;;;;;;7.63;2.25;;;10.80;99.90;;;10.95;100.00;99294.56;4940507;28;20257;-70
2022/12/29 01:49:14;;;;;;;12.68;3.45;;;10.90;99.90;;;10.93;100.00;99293.69;4973492;28;20249;-69
2022/12/29 01:51:58;;;;;;;13.55;3.75;;;10.90;99.90;;;11.03;100.00;99276.84;4955667;28;20241;-70
2022/12/29 01:57:55;;;;;;;29.55;6.40;;;11.10;99.90;;;11.09;100.00;99261.75;4942410;28;20321;-70
2022/12/29 02:00:22;;;;;;;11.88;2.55;;;11.10;99.90;;;11.02;100.00;99262.72;4906368;28;20714;-69
2022/12/29 02:02:53;;;;;;;27.65;5.82;;;11.00;99.90;;;11.11;100.00;99267.91;4908686;28;20244;-70
2022/12/29 02:05:35;;;;;;;29.42;6.47;;;11.10;99.90;;;11.05;100.00;99265.34;4910755;28;20328;-70
2022/12/29 02:08:03;;;;;;;19.55;4.10;;;11.00;99.90;;;11.12;100.00;99268.78;4971854;28;20229;-72
2022/12/29 02:10:32;;;;;;;19.85;4.18;;;11.10;99.90;;;11.16;99.70;99258.16;4945751;28;20268;-70
2022/12/29 02:13:00;;;;;;;21.90;4.43;;;11.10;99.90;;;11.11;100.00;99262.63;4926573;28;20234;-70
2022/12/29 02:16:05;;;;;;;24.80;5.18;;;11.10;99.90;;;11.02;100.00;99275.94;4955352;28;20229;-70
2022/12/29 02:18:51;;;;;;;21.80;4.72;;;11.00;99.90;;;10.99;100.00;99262.75;4941763;28;20225;-70
2022/12/29 02:22:12;;;;;;;16.45;3.60;;;11.00;99.90;;;11.09;100.00;99268.81;4948203;28;20261;-70
2022/12/29 02:24:48;;;;;;;26.10;5.95;;;11.00;99.90;;;11.23;99.57;99261.59;4922378;28;20230;-72
2022/12/29 02:28:07;;;;;;;22.00;4.97;;;11.20;99.90;;;11.10;99.51;99231.75;4940852;28;20328;-70
2022/12/29 02:31:00;;;;;;;21.38;4.53;;;11.20;99.90;;;11.11;99.53;99219.41;4951344;28;20242;-70
2022/12/29 02:33:52;;;;;;;19.35;4.45;;;11.10;99.90;;;11.36;98.21;99226.13;4941030;28;20225;-71
2022/12/29 02:37:10;;;;;;;12.48;2.90;;;11.20;99.90;;;11.36;97.10;99198.78;4963376;28;20682;-72
2022/12/29 02:39:58;;;;;;;0.00;0.00;;;11.40;99.90;;;11.38;95.71;99179.34;4934714;28;20777;-70
2022/12/29 02:43:00;;;;;;;0.00;0.00;;;11.40;99.90;;;11.33;95.63;99172.38;4921906;28;20238;-71
2022/12/29 02:46:03;;;;;;;0.00;0.00;;;11.30;99.90;;;11.34;95.23;99171.47;4954233;28;20248;-71
2022/12/29 02:48:55;;;;;;;0.03;0.03;;;11.30;99.90;;;11.29;95.62;99174.19;4935842;28;20357;-70
2022/12/29 02:51:44;;;;;;;1.20;1.00;;;12.30;99.90;;;11.31;95.44;99180.34;4955025;28;20249;-70
2022/12/29 02:56:56;;;;;;;0.20;0.20;;;11.30;99.90;;;11.46;93.99;99172.16;4968849;28;20241;-71
2022/12/29 02:59:24;;;;;;;0.20;0.20;;;11.40;99.90;;;11.42;93.61;99154.59;4940113;28;20238;-70
2022/12/29 03:02:18;;;;;;;0.30;0.30;;;11.40;99.90;;;11.49;93.14;99144.78;4959932;28;20257;-72
2022/12/29 03:05:21;;;;;;;0.10;0.10;;;11.40;99.90;;;11.77;90.86;99134.66;4945905;28;20244;-69
2022/12/29 03:08:21;;;;;;;0.10;0.10;;;11.70;99.90;;;11.61;90.24;99089.00;4940199;28;20237;-69
2022/12/29 03:11:01;;;;;;;0.20;0.20;;;11.60;99.90;;;11.72;89.06;99071.19;4946417;28;20237;-69
2022/12/29 03:16:52;;;;;;;16.50;3.58;;;11.70;99.90;;;11.68;88.38;99036.78;4932760;28;20222;-70
2022/12/29 03:19:36;;;;;;;4.43;1.95;;;11.70;99.90;;;11.54;88.64;99040.56;4949359;28;20316;-69
2022/12/29 03:25:23;;;;;;;0.08;0.08;;;11.50;99.90;;;11.79;87.28;99026.94;4954762;28;20285;-71
2022/12/29 03:27:56;;;;;;;0.20;0.20;;;11.70;99.90;;;11.69;86.90;99010.28;4955801;28;20238;-70
2022/12/29 03:30:24;;;;;;;0.10;0.10;;;11.70;99.90;;;11.60;86.88;99002.50;4972621;28;20303;-70
2022/12/29 03:32:56;;;;;;;0.13;0.13;;;11.60;99.90;;;11.64;86.88;99000.69;4956831;28;20329;-71
2022/12/29 03:35:27;;;;;;;0.10;0.10;;;11.60;99.90;;;11.60;86.56;98972.50;4963732;28;20281;-69
2022/12/29 03:38:23;;;;;;;0.60;0.60;;;11.60;99.90;;;11.35;87.22;98966.78;4954880;28;20233;-71
2022/12/29 03:40:56;;;;;;;8.68;2.75;;;11.40;99.90;;;11.75;86.18;98978.44;4939337;28;20245;-69
2022/12/29 03:43:24;;;;;;;10.65;3.53;;;11.70;99.90;;;11.58;85.99;98955.78;4928331;28;20317;-69
2022/12/29 03:45:51;;;;;;;0.75;0.60;;;11.60;99.90;;;11.52;86.46;98962.06;4946110;28;20332;-70
2022/12/29 03:48:18;;;;;;;25.73;5.35;;;11.50;99.90;;;11.34;86.78;98943.88;4939187;28;20320;-69
2022/12/29 03:50:45;;;;;;;22.38;4.43;;;11.40;99.90;;;11.31;87.10;98946.56;4957963;28;20225;-69
2022/12/29 03:53:12;;;;;;;23.77;4.93;;;11.30;99.90;;;11.38;86.83;98942.91;4929408;28;20239;-70
2022/12/29 03:55:39;;;;;;;25.13;5.35;;;11.40;99.90;;;11.71;86.00;98955.56;4926213;28;20647;-69
2022/12/29 03:58:06;;;;;;;13.63;3.50;;;11.60;99.90;;;11.58;85.73;98937.25;4926829;28;20656;-70
2022/12/29 04:00:33;;;;;;;19.33;4.30;;;11.50;99.90;;;11.69;85.40;98933.50;4926043;28;20242;-69
2022/12/29 04:03:00;;;;;;;15.70;3.50;;;11.60;99.90;;;11.51;85.75;98923.25;4957406;28;20257;-71
2022/12/29 04:05:27;;;;;;;18.83;4.53;;;11.50;99.90;;;11.34;86.54;98922.69;4926642;28;20241;-71
2022/12/29 04:07:54;;;;;;;16.42;4.03;;;11.40;99.90;;;10.95;89.22;98951.59;4954204;28;20268;-70
2022/12/29 04:10:21;;;;;;;16.20;4.50;;;11.00;99.90;;;10.77;91.35;98981.84;4970504;28;20300;-70
2022/12/29 04:12:48;;;;;;;6.30;2.75;;;10.80;99.90;;;10.69;92.66;98999.59;4955742;28;20328;-69
2022/12/29 04:15:15;;;;;;;4.93;2.47;;;10.70;99.90;;;10.57;93.81;99011.22;4925658;28;20242;-70
2022/12/29 04:17:44;;;;;;;8.38;2.90;;;10.60;99.90;;;10.70;93.94;99022.47;4954805;28;20234;-70
2022/12/29 04:23:04;;;;;;;24.95;5.20;;;11.20;99.90;;;11.62;89.29;98992.75;4936788;28;20228;-70
2022/12/29 04:25:32;;;;;;;22.85;4.75;;;11.50;99.90;;;11.34;89.12;98941.22;4922247;28;20303;-70
2022/12/29 04:28:00;;;;;;;27.55;6.07;;;11.40;99.90;;;10.99;90.06;98933.91;4954826;28;20288;-70
2022/12/29 04:30:27;;;;;;;13.52;3.15;;;11.00;99.90;;;10.95;90.59;98951.59;4928103;28;20241;-71
2022/12/29 04:32:54;;;;;;;11.50;2.63;;;10.90;99.90;;;11.30;90.09;98968.63;4953798;28;20261;-70
2022/12/29 04:35:21;;;;;;;23.85;5.55;;;11.10;99.90;;;11.68;88.15;98954.72;4949009;28;20730;-70
2022/12/29 04:37:48;;;;;;;11.07;3.25;;;11.50;99.90;;;11.99;86.36;98957.69;4955513;28;20257;-69
2022/12/29 04:40:15;;;;;;;13.80;4.35;;;11.80;99.90;;;11.82;86.16;98913.00;4946300;28;20333;-71
2022/12/29 04:42:42;;;;;;;12.93;3.60;;;11.80;99.90;;;11.89;85.47;98901.38;4936768;28;20229;-70
2022/12/29 04:45:10;;;;;;;13.48;3.88;;;11.80;99.90;;;11.99;84.71;98892.34;4950904;28;20736;-70
2022/12/29 04:47:37;;;;;;;14.25;4.00;;;11.90;99.90;;;11.81;85.33;98884.78;4950561;28;20298;-70
2022/12/29 04:50:05;;;;;;;16.60;4.50;;;11.80;99.90;;;12.02;84.60;98891.41;4937881;28;20265;-70
2022/12/29 04:52:32;;;;;;;11.25;3.22;;;12.00;99.90;;;12.10;84.53;98902.72;4936699;28;20294;-68
2022/12/29 04:55:00;;;;;;;7.68;2.85;;;12.00;99.90;;;11.91;84.60;98888.97;4938925;28;20257;-70
2022/12/29 04:57:27;;;;;;;7.72;2.40;;;12.00;99.90;;;11.77;85.23;98891.00;4955298;28;20241;-70
2022/12/29 04:59:54;;;;;;;9.73;3.03;;;11.80;99.90;;;11.79;85.77;98895.41;4921156;28;20284;-70
2022/12/29 05:02:21;;;;;;;15.05;3.90;;;11.70;99.90;;;11.92;85.43;98889.84;4967624;28;20261;-69
2022/12/29 05:04:48;;;;;;;22.02;4.50;;;11.80;99.90;;;12.04;85.16;98905.50;4956441;28;20229;-72
2022/12/29 05:07:15;;;;;;;20.73;4.85;;;11.90;99.90;;;11.91;84.93;98881.03;4925618;28;20229;-69
2022/12/29 05:09:44;;;;;;;17.40;4.03;;;11.90;99.90;;;11.81;85.15;98876.84;4954408;28;20229;-70
2022/12/29 05:12:11;;;;;;;19.20;4.40;;;11.80;99.90;;;11.88;85.08;98893.47;4941254;28;20720;-70
2022/12/29 05:14:38;;;;;;;11.10;2.92;;;11.80;99.90;;;11.69;85.91;98895.56;4953874;28;20241;-70
2022/12/29 05:17:05;;;;;;;7.38;2.88;;;11.70;99.90;;;11.95;85.32;98913.63;4941501;28;20296;-70
2022/12/29 05:19:32;;;;;;;20.42;4.43;;;11.90;99.90;;;12.04;84.52;98876.34;4924109;28;20257;-70
2022/12/29 05:21:59;;;;;;;20.55;4.85;;;12.00;99.90;;;11.96;84.77;98859.75;4954277;28;20233;-69
2022/12/29 05:24:26;;;;;;;27.63;6.00;;;12.00;99.90;;;11.94;84.82;98857.13;4944585;28;20313;-71
2022/12/29 05:26:53;;;;;;;19.55;4.45;;;12.00;99.90;;;11.68;85.59;98867.34;4942184;28;20273;-69
2022/12/29 05:29:20;;;;;;;20.92;4.95;;;11.70;99.90;;;11.66;86.55;98890.31;4925890;28;20383;-71
2022/12/29 05:31:47;;;;;;;20.77;4.38;;;11.60;99.90;;;11.65;86.41;98889.44;4928575;28;20257;-70
2022/12/29 05:34:14;;;;;;;14.48;3.67;;;11.60;99.90;;;12.08;84.83;98897.44;4931143;28;20224;-71
2022/12/29 05:36:41;;;;;;;13.38;3.05;;;11.90;99.90;;;12.01;84.26;98853.44;4928053;28;20229;-70
2022/12/29 05:39:08;;;;;;;16.98;3.53;;;12.00;99.90;;;12.23;83.37;98861.78;4928756;28;20232;-69
2022/12/29 05:41:35;;;;;;;27.60;5.93;;;12.10;99.90;;;12.23;82.58;98814.06;4945816;28;20300;-69
2022/12/29 05:44:02;;;;;;;36.42;14.57;;;12.20;99.90;;;12.24;82.27;98814.94;4970971;28;20234;-69
2022/12/29 05:46:30;;;;;;;17.65;4.18;;;12.20;99.90;;;12.25;81.85;98799.00;4927880;28;20312;-69
2022/12/29 05:48:57;;;;;;;19.75;4.65;;;12.20;99.90;;;12.07;82.65;98786.19;4924844;28;20248;-71
2022/12/29 05:51:24;;;;;;;20.77;4.10;;;12.10;99.90;;;12.06;82.87;98803.88;4959192;28;20256;-69
2022/12/29 05:53:51;;;;;;;28.80;6.00;;;12.00;99.90;;;11.96;83.30;98805.00;4924865;28;20246;-69
2022/12/29 05:56:18;;;;;;;24.63;4.90;;;12.00;99.90;;;12.06;83.47;98834.78;4939431;28;20238;-68
2022/12/29 05:58:45;;;;;;;26.77;5.72;;;12.00;99.90;;;12.22;82.82;98788.47;4958188;28;20241;-70
2022/12/29 06:01:12;;;;;;;26.67;5.53;;;12.10;99.90;;;12.22;82.46;98792.91;4942187;28;20800;-68
2022/12/29 06:03:39;;;;;;;28.67;5.97;;;12.10;99.90;;;12.14;82.64;98772.78;4926718;28;20281;-71
2022/12/29 06:06:13;;;;;;;32.55;6.75;;;12.10;99.90;;;12.34;82.05;98776.72;4928820;28;20235;-69
2022/12/29 06:08:40;;;;;;;23.27;4.95;;;12.30;99.90;;;12.26;82.08;98757.47;4923580;28;20322;-69
2022/12/29 06:11:07;;;;;;;54.00;12.43;;;12.20;99.90;;;12.61;80.15;98751.28;4941843;28;20663;-70
2022/12/29 06:13:35;;;;;;;39.47;9.13;;;12.50;99.90;;;12.57;79.38;98708.06;4925691;28;20229;-69
2022/12/29 06:16:02;;;;;;;42.08;9.63;;;12.50;99.90;;;12.42;79.76;98696.09;4954687;28;20312;-69
2022/12/29 06:18:29;;;;;;;20.58;4.90;;;12.40;99.90;;;12.41;79.83;98682.88;4939841;28;20284;-69
2022/12/29 06:21:01;;;;;;;30.63;6.63;;;12.40;99.90;;;12.53;79.14;98693.16;4955864;28;20458;-72
2022/12/29 06:23:29;;;;;;;32.67;6.80;;;12.40;99.90;;;12.47;78.82;98667.69;4931449;28;20284;-70
2022/12/29 06:25:57;;;;;;;29.17;6.32;;;12.40;99.90;;;12.38;79.42;98678.53;4931357;28;20733;-71
2022/12/29 06:28:24;;;;;;;33.88;7.35;;;12.30;99.90;;;12.57;78.39;98636.47;4958721;28;20324;-70
2022/12/29 06:30:51;;;;;;;30.20;6.55;;;12.50;99.90;;;12.21;79.64;98645.41;4923811;28;21215;-70
2022/12/29 06:33:19;;;;;;;28.38;6.45;;;12.30;99.90;;;11.92;81.51;98686.75;4953721;28;20233;-70
2022/12/29 06:35:45;;;;;;;14.05;2.97;;;12.00;99.90;;;11.71;83.07;98706.66;4924011;28;20231;-69
2022/12/29 06:38:14;;;;;;;34.55;7.32;;;11.80;99.90;;;11.67;84.15;98736.72;4922184;28;20238;-69
2022/12/29 06:40:44;;;;;;;20.10;4.57;;;11.60;99.90;;;11.53;85.32;98736.16;4941938;28;20242;-69
2022/12/29 06:43:12;;;;;;;50.92;10.45;;;11.50;99.90;;;11.41;86.49;98786.72;4941291;28;20258;-68
2022/12/29 06:45:40;;;;;;;32.10;6.53;;;11.40;99.90;;;11.33;86.80;98762.19;4927978;28;20300;-69
2022/12/29 06:48:07;;;;;;;43.33;8.93;;;11.30;99.90;;;11.32;87.13;98782.47;4973505;28;20610;-68
2022/12/29 06:50:34;;;;;;;32.92;6.57;;;11.30;99.90;;;11.43;86.86;98759.31;4973479;28;20230;-69
2022/12/29 06:53:01;;;;;;;33.95;7.45;;;11.40;99.90;;;11.60;85.84;98752.78;4943278;28;20325;-68
2022/12/29 06:55:28;;;;;;;40.22;8.60;;;11.50;99.90;;;11.50;85.47;98731.81;4957428;28;20234;-69
2022/12/29 06:57:58;;;;;;;48.72;9.93;;;11.50;99.90;;;11.42;86.13;98740.81;4918790;28;20240;-69
2022/12/29 07:00:25;;;;;;;24.88;5.05;;;11.40;99.90;;;11.31;86.72;98756.03;4943300;28;20376;-69
2022/12/29 07:02:54;;;;;;;29.60;6.07;;;11.30;99.90;;;11.21;87.19;98747.41;4924070;28;20328;-69
2022/12/29 07:05:22;;;;;;;24.88;5.50;;;11.20;99.90;;;11.54;85.74;98767.00;4950089;28;20244;-69
2022/12/29 07:07:49;;;;;;;14.63;3.00;;;11.40;99.90;;;11.44;85.61;98733.72;4927107;28;20239;-69
2022/12/29 07:10:16;;;;;;;24.95;4.82;;;11.40;99.90;;;11.46;85.19;98716.88;4953877;28;20616;-70
2022/12/29 07:12:43;;;;;;;27.20;5.28;;;11.40;99.90;;;11.31;85.58;98713.72;4944356;28;20229;-70
2022/12/29 07:15:10;;;;;;;26.63;5.28;;;11.30;99.90;;;11.20;86.25;98725.38;4931716;28;20238;-70
2022/12/29 07:17:37;;;;;;;34.95;7.53;;;11.20;99.90;;;11.35;86.02;98733.91;4920641;28;20754;-69
2022/12/29 07:20:05;;;;;;;31.20;6.10;;;11.30;99.90;;;11.40;85.57;98722.31;4960617;28;20233;-70
2022/12/29 07:22:33;;;;;;;41.38;8.15;;;11.40;99.90;;;11.36;85.52;98711.84;4941964;28;20298;-70
2022/12/29 07:25:00;;;;;;;20.98;4.45;;;11.30;99.90;;;11.77;83.63;98716.22;4957521;28;20233;-69
2022/12/29 07:27:27;;;;;;;16.00;3.30;;;11.60;99.90;;;11.84;82.59;98654.31;4963526;28;20232;-71
2022/12/29 07:29:54;;;;;;;33.63;6.63;;;11.80;99.90;;;11.90;82.09;98650.63;4962139;28;20237;-70
2022/12/29 07:32:21;;;;;;;36.67;7.22;;;11.90;99.90;;;11.81;81.94;98649.06;4973409;28;20228;-70
2022/12/29 07:34:48;;;;;;;26.08;5.05;;;11.80;99.90;;;12.01;81.31;98648.59;4958757;28;20226;-69
2022/12/29 07:37:15;;;;;;;27.35;5.75;;;11.90;99.90;;;11.83;81.66;98629.59;4956075;28;20277;-70
2022/12/29 07:39:43;;;;;;;12.45;2.60;;;11.80;99.90;;;11.67;82.24;98643.19;4932251;28;20225;-70
2022/12/29 07:42:10;;;;;;;31.02;6.10;;;11.70;99.90;;;11.52;83.10;98653.22;4929076;28;20312;-69
2022/12/29 07:44:37;;;;;;;32.38;6.57;;;11.50;99.90;;;11.60;83.16;98676.88;4929905;28;20222;-69
2022/12/29 07:47:04;;;;;;;18.40;3.85;;;11.50;99.90;;;11.58;83.14;98661.94;4953649;28;20252;-69
2022/12/29 07:49:31;;;;;;;23.50;4.60;;;11.50;99.90;;;11.58;83.16;98680.47;4947539;28;20341;-69
2022/12/29 07:51:58;;;;;;;29.73;5.70;;;11.50;99.90;;;12.06;81.66;98657.28;4954266;28;20233;-71
2022/12/29 07:54:25;;;;;;;20.13;3.83;;;12.00;99.90;;;11.71;82.26;98634.28;4973110;28;20285;-69
2022/12/29 07:56:52;;;;;;;28.25;5.78;;;11.70;99.90;;;11.55;83.02;98647.00;4958001;28;20304;-69
2022/12/29 07:59:19;;;;;;;26.27;5.03;;;11.60;99.90;;;11.62;83.08;98677.72;4958327;28;20260;-69
2022/12/29 08:01:47;;;;;;;28.38;5.40;;;11.50;99.90;;;12.43;80.85;98705.78;4935093;28;20261;-69
2022/12/29 08:04:15;;;;;;;24.83;4.93;;;12.10;99.90;;;12.43;79.78;98639.50;4927796;28;20237;-68
2022/12/29 08:06:42;;;;;;;25.33;5.18;;;12.30;99.90;;;12.38;78.87;98590.19;4923136;28;20230;-69
2022/12/29 08:09:09;;;;;;;41.58;8.82;;;12.40;99.90;;;12.27;79.07;98610.81;4939465;28;20245;-69
2022/12/29 08:11:44;;;;;;;24.30;4.90;;;12.20;99.90;;;12.40;79.19;98609.56;4955866;28;20233;-69
2022/12/29 08:14:11;;;;;;;21.25;4.60;;;12.30;99.90;;;12.36;79.24;98608.78;4954367;28;20234;-70
2022/12/29 08:16:38;;;;;;;27.55;5.45;;;12.30;99.90;;;12.90;77.38;98609.91;4938432;28;20251;-70
2022/12/29 08:19:05;;;;;;;23.48;4.53;;;12.80;99.90;;;12.97;77.04;98591.09;4928722;28;20236;-68
2022/12/29 08:21:32;;;;;;;43.95;16.08;;;12.90;99.90;;;13.01;77.23;98616.66;4917314;28;20257;-69
2022/12/29 08:23:59;;;;;;;23.88;5.32;;;13.00;99.90;;;12.79;78.09;98629.66;4948026;28;20296;-70
2022/12/29 08:26:27;;;;;;;92.55;80.93;;;12.80;99.90;;;12.82;78.54;98652.56;4904501;28;20268;-69
2022/12/29 08:28:55;;;;;;;48.92;26.35;;;12.80;99.90;;;12.81;78.44;98645.53;4933974;28;20401;-71
2022/12/29 08:31:24;;;;;;;42.47;38.25;;;12.70;99.90;;;13.08;77.23;98606.75;4916358;28;20237;-69
2022/12/29 08:33:51;;;;;;;67.43;45.42;;;13.00;99.90;;;12.93;77.40;98586.81;4945196;28;20321;-71
2022/12/29 08:36:18;;;;;;;86.88;44.28;;;12.90;99.90;;;12.94;77.21;98585.91;4876867;28;20237;-70
2022/12/29 08:38:45;;;;;;;87.38;36.90;;;12.90;99.90;;;12.96;77.37;98621.22;4893206;28;20300;-70
2022/12/29 08:41:12;;;;;;;71.28;40.17;;;12.90;99.90;;;13.00;77.29;98585.75;4912426;28;20238;-70
2022/12/29 08:43:42;;;;;;;70.72;36.10;;;13.00;99.90;;;12.97;77.40;98606.16;4893167;28;20261;-70
2022/12/29 08:46:15;;;;;;;97.05;31.73;;;12.90;99.90;;;12.79;78.16;98616.41;4889716;28;20237;-70
2022/12/29 08:48:44;;;;;;;91.72;49.40;;;12.70;99.90;;;12.76;78.59;98635.06;4893147;28;20891;-70
2022/12/29 08:51:11;;;;;;;73.90;36.28;;;12.70;99.90;;;12.72;79.75;98654.63;4932396;28;20241;-70
2022/12/29 08:53:38;;;;;;;46.92;21.80;;;12.70;99.90;;;12.59;81.05;98684.16;4943751;28;20629;-70
2022/12/29 08:56:06;;;;;;;44.97;12.50;;;12.50;99.90;;;12.65;81.02;98689.31;4942389;28;20237;-70
2022/12/29 08:58:33;;;;;;;19.90;9.52;;;12.60;99.90;;;12.76;80.81;98708.44;4930161;28;20331;-69
2022/12/29 09:01:00;;;;;;;48.45;19.85;;;12.60;99.90;;;12.66;80.96;98676.00;4955856;28;20279;-70
2022/12/29 09:03:27;;;;;;;40.08;8.73;;;12.60;99.90;;;12.80;79.95;98667.66;4948205;28;20241;-70
2022/12/29 09:06:17;;;;;;;43.72;11.10;;;12.70;99.90;;;12.82;79.83;98660.53;4913103;28;20240;-69
2022/12/29 09:08:49;;;;;;;52.85;11.93;;;12.80;99.90;;;12.85;79.59;98646.31;4966652;28;20626;-70
2022/12/29 09:11:23;;;;;;;22.00;4.80;;;12.80;99.90;;;12.68;80.02;98639.69;4950705;28;20233;-70
2022/12/29 09:13:52;;;;;;;34.33;6.72;;;12.60;99.90;;;12.90;79.07;98642.59;4929184;28;20233;-68
2022/12/29 09:16:26;;;;;;;9.50;4.20;;;12.80;99.90;;;12.90;78.92;98623.16;4917769;28;20230;-69
2022/12/29 09:18:58;;;;;;;32.22;6.32;;;12.90;99.90;;;12.79;79.39;98637.63;4924689;28;20376;-69
2022/12/29 09:21:25;;;;;;;10.68;2.35;;;12.70;99.90;;;12.76;79.62;98655.41;4942731;23;20321;-82
2022/12/29 09:23:52;;;;;;;12.50;2.95;;;12.70;99.90;;;12.62;80.93;98678.78;4930587;28;20265;-80
2022/12/29 09:26:19;;;;;;;17.92;3.90;;;12.60;99.90;;;12.62;81.43;98715.91;4925371;28;20254;-81
2022/12/29 09:31:29;;;;;;;40.60;8.13;;;12.50;99.90;;;12.35;83.31;98747.53;5324270;23;20249;-73
2022/12/29 09:34:06;;;;;;;;;;;;;;;;;;;;;
2022/12/29 09:36:34;;;;;;;25.63;5.03;;;12.20;99.90;;;12.34;84.26;98780.22;4942499;28;20253;-78
2022/12/29 09:39:02;;;;;;;24.02;5.15;;;11.80;99.90;;;12.40;84.10;98771.25;4938504;28;20297;-79
2022/12/29 09:41:55;;;;;;;22.30;4.50;;;12.70;99.90;;;12.39;84.46;98788.06;4936215;28;20238;-84
2022/12/29 09:44:48;;;;;;;14.75;2.97;;;12.30;99.90;;;12.35;84.66;98778.47;4920538;29;20261;-81
2022/12/29 09:47:19;;;;;;;14.07;2.88;;;12.30;99.90;;;12.20;85.63;98792.94;4929493;28;20241;-81
2022/12/29 09:49:56;;;;;;;31.85;6.60;;;12.10;99.90;;;12.11;86.71;98817.88;4922181;28;20265;-80
2022/12/29 09:52:47;;;;;;;13.23;3.17;;;12.00;99.90;;;12.08;87.38;98833.84;4921933;28;20738;-84
2022/12/29 09:55:20;;;;;;;23.92;4.93;;;12.00;99.90;;;12.02;88.13;98836.63;4911419;28;20332;-80
2022/12/29 09:58:05;;;;;;;96.28;15.48;;;12.00;99.90;;;12.02;88.28;98846.38;4966203;23;20347;-82
2022/12/29 10:01:01;;;;;;;20.98;4.95;;;11.90;99.90;;;12.10;87.91;98847.06;4949339;28;20270;-79
2022/12/29 10:03:46;;;;;;;32.85;6.72;;;12.00;99.90;;;12.09;87.93;98842.66;4947507;28;20269;-81
2022/12/29 10:06:24;;;;;;;25.60;5.28;;;12.00;99.90;;;12.12;87.41;98835.53;4930062;28;20222;-78
2022/12/29 10:09:08;;;;;;;28.30;5.70;;;12.10;99.90;;;12.20;86.59;98824.75;4943876;28;20240;-79
2022/12/29 10:12:01;;;;;;;22.58;5.07;;;12.10;99.90;;;12.17;87.11;98832.78;4957751;28;20265;-79
2022/12/29 10:15:08;;;;;;;16.55;3.50;;;12.10;99.90;;;12.11;87.43;98831.13;4950473;28;20233;-79
2022/12/29 10:18:20;;;;;;;17.77;3.80;;;12.10;99.90;;;12.21;87.15;98836.22;4957522;28;20268;-78
2022/12/29 10:21:35;;;;;;;9.10;1.95;;;12.10;99.90;;;12.25;86.14;98809.63;4952205;28;20241;-77
2022/12/29 10:24:07;;;;;;;22.42;4.65;;;12.20;99.90;;;12.23;86.03;98790.22;4949205;28;20237;-77
2022/12/29 10:26:45;;;;;;;12.20;2.83;;;12.20;99.90;;;12.35;85.10;98791.72;4966846;28;20237;-77
2022/12/29 10:29:15;;;;;;;13.90;2.97;;;12.20;99.90;;;12.37;84.40;98776.63;4956111;28;20721;-78
2022/12/29 10:32:06;;;;;;;19.05;3.85;;;12.30;99.90;;;12.34;84.53;98785.53;4954450;28;20230;-79
2022/12/29 10:34:41;;;;;;;10.40;2.17;;;12.30;99.90;;;12.52;83.74;98768.31;4940604;28;20234;-78
2022/12/29 10:37:17;;;;;;;17.05;4.13;;;12.40;99.90;;;12.50;83.51;98749.78;4944206;28;20232;-77
2022/12/29 10:39:59;;;;;;;20.13;4.40;;;12.40;99.90;;;12.53;82.96;98751.47;4954903;28;20229;-77
2022/12/29 10:42:52;;;;;;;12.90;2.67;;;12.40;99.90;;;12.63;82.82;98768.91;4951241;28;20297;-79
2022/12/29 10:45:21;;;;;;;18.92;4.13;;;12.50;99.90;;;12.62;83.76;98791.03;4956873;28;20234;-79
2022/12/29 10:48:04;;;;;;;23.45;5.32;;;12.50;99.90;;;12.62;85.16;98835.22;4946833;28;20292;-80
2022/12/29 10:50:31;;;;;;;20.77;5.13;;;12.50;99.90;;;12.65;85.01;98841.31;4941929;28;20231;-84
2022/12/29 10:53:04;;;;;;;15.57;4.50;;;12.50;99.90;;;12.69;84.64;98826.22;4939043;28;20247;-78
2022/12/29 10:55:38;;;;;;;31.65;6.72;;;12.60;99.90;;;12.77;83.68;98817.16;4948228;28;20225;-77
2022/12/29 10:58:11;;;;;;;28.70;14.40;;;12.70;99.90;;;12.81;82.68;98780.81;4941170;28;20229;-75
2022/12/29 11:00:39;;;;;;;30.75;8.45;;;12.70;99.90;;;12.85;81.62;98742.69;4957358;28;20246;-76
2022/12/29 11:03:59;;;;;;;15.65;4.00;;;12.80;99.90;;;13.02;81.59;98756.38;4939617;28;20273;-80
2022/12/29 11:06:34;;;;;;;22.13;5.07;;;12.90;99.90;;;13.05;81.48;98756.31;4945538;28;20225;-86
2022/12/29 11:09:23;;;;;;;20.15;5.40;;;13.00;99.90;;;12.80;81.05;98689.75;4945441;28;20240;-80
2022/12/29 11:12:27;;;;;;;27.67;8.18;;;12.80;99.90;;;12.64;80.77;98659.25;4941937;28;20307;-78
2022/12/29 11:15:14;;;;;;;17.45;4.85;;;12.60;99.90;;;12.67;79.24;98622.06;4945961;28;20240;-81
2022/12/29 11:17:47;;;;;;;70.70;30.15;;;12.60;99.90;;;12.65;79.16;98607.09;4938018;28;20698;-79
2022/12/29 11:20:38;;;;;;;46.15;17.80;;;12.60;99.90;;;12.63;79.63;98628.34;4919178;28;20232;-84
2022/12/29 11:23:31;;;;;;;31.35;11.02;;;12.60;99.90;;;12.62;80.33;98660.22;4961647;23;20300;-68